sensor_id;sensor_type;location;lat;lon;timestamp;temperature;humidity
18577;DHT22;9418;52.694;13.294;2023-03-23T00:02:27;10.50;99.90
18577;DHT22;9418;52.694;13.294;2023-03-23T00:04:54;10.50;99.90
18577;DHT22;9418;52.694;13.294;2023-03-23T00:07:22;10.50;99.90
18577;DHT22;9418;52.694;13.294;2023-03-23T00:09:54;10.40;96.00
18577;DHT22;9418;52.694;13.294;2023-03-23T00:12:22;10.40;90.00
18577;DHT22;9418;52.694;13.294;2023-03-23T00:14:54;10.40;83.60
18577;DHT22;9418;52.694;13.294;2023-03-23T00:17:20;10.30;85.00
18577;DHT22;9418;52.694;13.294;2023-03-23T00:19:48;10.40;83.00
18577;DHT22;9418;52.694;13.294;2023-03-23T00:22:16;10.40;92.00
18577;DHT22;9418;52.694;13.294;2023-03-23T00:24:46;10.50;98.90
18577;DHT22;9418;52.694;13.294;2023-03-23T00:27:14;10.50;99.90
18577;DHT22;9418;52.694;13.294;2023-03-23T00:29:41;10.50;99.90
18577;DHT22;9418;52.694;13.294;2023-03-23T00:32:11;10.40;99.90
18577;DHT22;9418;52.694;13.294;2023-03-23T00:34:40;10.40;99.90
18577;DHT22;9418;52.694;13.294;2023-03-23T00:37:08;10.30;99.80
18577;DHT22;9418;52.694;13.294;2023-03-23T00:39:36;10.30;97.80
18577;DHT22;9418;52.694;13.294;2023-03-23T00:42:04;10.30;99.90
18577;DHT22;9418;52.694;13.294;2023-03-23T00:44:33;10.30;99.90
18577;DHT22;9418;52.694;13.294;2023-03-23T00:47:01;10.20;99.90
18577;DHT22;9418;52.694;13.294;2023-03-23T00:49:28;10.20;98.90
18577;DHT22;9418;52.694;13.294;2023-03-23T00:51:56;10.20;94.40
18577;DHT22;9418;52.694;13.294;2023-03-23T00:54:24;10.10;91.40
18577;DHT22;9418;52.694;13.294;2023-03-23T00:56:51;10.10;89.00
18577;DHT22;9418;52.694;13.294;2023-03-23T00:59:18;10.00;88.90
18577;DHT22;9418;52.694;13.294;2023-03-23T01:01:47;10.00;83.10
18577;DHT22;9418;52.694;13.294;2023-03-23T01:04:14;10.00;83.30
18577;DHT22;9418;52.694;13.294;2023-03-23T01:06:43;10.00;81.90
18577;DHT22;9418;52.694;13.294;2023-03-23T01:09:12;10.00;86.00
18577;DHT22;9418;52.694;13.294;2023-03-23T01:11:40;10.00;85.50
18577;DHT22;9418;52.694;13.294;2023-03-23T01:14:07;10.00;87.20
18577;DHT22;9418;52.694;13.294;2023-03-23T01:16:34;10.00;88.00
18577;DHT22;9418;52.694;13.294;2023-03-23T01:19:02;10.10;90.70
18577;DHT22;9418;52.694;13.294;2023-03-23T01:21:29;10.20;96.20
18577;DHT22;9418;52.694;13.294;2023-03-23T01:23:56;10.30;99.90
18577;DHT22;9418;52.694;13.294;2023-03-23T01:26:25;10.30;99.90
18577;DHT22;9418;52.694;13.294;2023-03-23T01:28:52;10.30;99.90
18577;DHT22;9418;52.694;13.294;2023-03-23T01:31:21;10.40;99.90
18577;DHT22;9418;52.694;13.294;2023-03-23T01:33:48;10.50;99.90
18577;DHT22;9418;52.694;13.294;2023-03-23T01:36:19;10.60;99.90
18577;DHT22;9418;52.694;13.294;2023-03-23T01:38:47;10.60;99.90
18577;DHT22;9418;52.694;13.294;2023-03-23T01:41:15;10.60;99.90
18577;DHT22;9418;52.694;13.294;2023-03-23T01:43:56;10.60;99.90
18577;DHT22;9418;52.694;13.294;2023-03-23T01:46:25;10.70;99.90
18577;DHT22;9418;52.694;13.294;2023-03-23T01:48:53;10.70;99.90
18577;DHT22;9418;52.694;13.294;2023-03-23T01:51:22;10.60;99.90
18577;DHT22;9418;52.694;13.294;2023-03-23T01:53:52;10.60;99.90
18577;DHT22;9418;52.694;13.294;2023-03-23T01:56:23;10.60;99.90
18577;DHT22;9418;52.694;13.294;2023-03-23T01:58:51;10.70;99.90
18577;DHT22;9418;52.694;13.294;2023-03-23T02:01:18;10.70;99.90
18577;DHT22;9418;52.694;13.294;2023-03-23T02:03:47;10.80;99.90
18577;DHT22;9418;52.694;13.294;2023-03-23T02:06:15;10.80;99.90
18577;DHT22;9418;52.694;13.294;2023-03-23T02:08:43;10.80;99.90
18577;DHT22;9418;52.694;13.294;2023-03-23T02:11:14;10.90;99.90
18577;DHT22;9418;52.694;13.294;2023-03-23T02:13:42;10.90;99.90
18577;DHT22;9418;52.694;13.294;2023-03-23T02:16:15;11.00;99.90
18577;DHT22;9418;52.694;13.294;2023-03-23T02:18:58;11.00;99.90
18577;DHT22;9418;52.694;13.294;2023-03-23T02:21:52;11.00;99.90
18577;DHT22;9418;52.694;13.294;2023-03-23T02:24:51;11.10;99.90
18577;DHT22;9418;52.694;13.294;2023-03-23T02:27:33;11.10;99.90
18577;DHT22;9418;52.694;13.294;2023-03-23T02:30:20;11.10;99.90
18577;DHT22;9418;52.694;13.294;2023-03-23T02:33:17;11.10;1.40
18577;DHT22;9418;52.694;13.294;2023-03-23T02:35:50;11.20;99.90
18577;DHT22;9418;52.694;13.294;2023-03-23T02:38:22;11.20;99.90
18577;DHT22;9418;52.694;13.294;2023-03-23T02:40:54;11.30;99.90
18577;DHT22;9418;52.694;13.294;2023-03-23T02:43:23;11.30;99.90
18577;DHT22;9418;52.694;13.294;2023-03-23T02:45:52;11.40;99.90
18577;DHT22;9418;52.694;13.294;2023-03-23T02:48:22;11.40;99.90
18577;DHT22;9418;52.694;13.294;2023-03-23T02:50:52;11.40;99.90
18577;DHT22;9418;52.694;13.294;2023-03-23T02:53:22;11.40;99.90
18577;DHT22;9418;52.694;13.294;2023-03-23T02:55:50;11.40;99.90
18577;DHT22;9418;52.694;13.294;2023-03-23T02:58:19;11.40;99.90
18577;DHT22;9418;52.694;13.294;2023-03-23T03:00:46;11.30;99.90
18577;DHT22;9418;52.694;13.294;2023-03-23T03:03:17;11.40;99.90
18577;DHT22;9418;52.694;13.294;2023-03-23T03:05:53;11.40;99.90
18577;DHT22;9418;52.694;13.294;2023-03-23T03:08:28;11.40;99.90
18577;DHT22;9418;52.694;13.294;2023-03-23T03:11:00;11.40;99.90
18577;DHT22;9418;52.694;13.294;2023-03-23T03:13:34;11.40;99.90
18577;DHT22;9418;52.694;13.294;2023-03-23T03:16:09;11.40;99.90
18577;DHT22;9418;52.694;13.294;2023-03-23T03:18:41;11.40;99.90
18577;DHT22;9418;52.694;13.294;2023-03-23T03:21:12;11.40;99.90
18577;DHT22;9418;52.694;13.294;2023-03-23T03:23:41;11.40;99.90
18577;DHT22;9418;52.694;13.294;2023-03-23T03:26:10;11.40;99.90
18577;DHT22;9418;52.694;13.294;2023-03-23T03:28:38;11.30;99.90
18577;DHT22;9418;52.694;13.294;2023-03-23T03:31:06;11.20;99.90
18577;DHT22;9418;52.694;13.294;2023-03-23T03:33:34;11.20;99.90
18577;DHT22;9418;52.694;13.294;2023-03-23T03:36:03;11.10;94.80
18577;DHT22;9418;52.694;13.294;2023-03-23T03:38:41;11.00;68.00
18577;DHT22;9418;52.694;13.294;2023-03-23T03:41:07;10.90;48.70
18577;DHT22;9418;52.694;13.294;2023-03-23T03:43:35;10.80;21.10
18577;DHT22;9418;52.694;13.294;2023-03-23T03:46:01;10.60;99.90
18577;DHT22;9418;52.694;13.294;2023-03-23T03:48:28;10.50;99.90
18577;DHT22;9418;52.694;13.294;2023-03-23T03:50:55;10.50;99.90
18577;DHT22;9418;52.694;13.294;2023-03-23T03:53:22;10.40;99.90
18577;DHT22;9418;52.694;13.294;2023-03-23T03:55:50;10.30;99.90
18577;DHT22;9418;52.694;13.294;2023-03-23T03:58:16;10.30;99.90
18577;DHT22;9418;52.694;13.294;2023-03-23T04:00:43;10.30;99.90
18577;DHT22;9418;52.694;13.294;2023-03-23T04:03:13;10.20;99.90
18577;DHT22;9418;52.694;13.294;2023-03-23T04:05:40;10.20;99.90
18577;DHT22;9418;52.694;13.294;2023-03-23T04:08:09;10.20;99.90
18577;DHT22;9418;52.694;13.294;2023-03-23T04:10:37;10.20;99.90
18577;DHT22;9418;52.694;13.294;2023-03-23T04:13:06;10.20;99.90
18577;DHT22;9418;52.694;13.294;2023-03-23T04:15:32;10.20;98.70
18577;DHT22;9418;52.694;13.294;2023-03-23T04:17:59;10.20;78.10
18577;DHT22;9418;52.694;13.294;2023-03-23T04:20:26;10.20;57.00
18577;DHT22;9418;52.694;13.294;2023-03-23T04:22:53;10.10;39.60
18577;DHT22;9418;52.694;13.294;2023-03-23T04:25:20;10.10;34.60
18577;DHT22;9418;52.694;13.294;2023-03-23T04:27:48;10.00;30.30
18577;DHT22;9418;52.694;13.294;2023-03-23T04:30:19;10.00;24.30
18577;DHT22;9418;52.694;13.294;2023-03-23T04:32:47;10.00;21.00
18577;DHT22;9418;52.694;13.294;2023-03-23T04:35:16;9.90;81.40
18577;DHT22;9418;52.694;13.294;2023-03-23T04:37:43;9.90;98.10
18577;DHT22;9418;52.694;13.294;2023-03-23T04:40:10;9.90;97.70
18577;DHT22;9418;52.694;13.294;2023-03-23T04:42:40;9.90;96.80
18577;DHT22;9418;52.694;13.294;2023-03-23T04:45:11;9.80;89.20
18577;DHT22;9418;52.694;13.294;2023-03-23T04:47:40;9.90;97.20
18577;DHT22;9418;52.694;13.294;2023-03-23T04:50:09;9.80;98.90
18577;DHT22;9418;52.694;13.294;2023-03-23T04:52:37;9.80;99.90
18577;DHT22;9418;52.694;13.294;2023-03-23T04:55:07;9.80;99.90
18577;DHT22;9418;52.694;13.294;2023-03-23T04:57:34;9.80;97.50
18577;DHT22;9418;52.694;13.294;2023-03-23T05:00:01;9.80;98.70
18577;DHT22;9418;52.694;13.294;2023-03-23T05:02:34;9.80;99.90
18577;DHT22;9418;52.694;13.294;2023-03-23T05:05:02;9.80;98.70
18577;DHT22;9418;52.694;13.294;2023-03-23T05:07:29;9.80;96.90
18577;DHT22;9418;52.694;13.294;2023-03-23T05:09:55;9.80;99.30
18577;DHT22;9418;52.694;13.294;2023-03-23T05:12:22;9.80;99.90
18577;DHT22;9418;52.694;13.294;2023-03-23T05:14:48;9.80;99.90
18577;DHT22;9418;52.694;13.294;2023-03-23T05:17:15;9.80;99.90
18577;DHT22;9418;52.694;13.294;2023-03-23T05:19:42;9.80;99.90
18577;DHT22;9418;52.694;13.294;2023-03-23T05:22:11;9.80;99.90
18577;DHT22;9418;52.694;13.294;2023-03-23T05:24:38;9.80;99.90
18577;DHT22;9418;52.694;13.294;2023-03-23T05:27:04;9.80;99.90
18577;DHT22;9418;52.694;13.294;2023-03-23T05:29:33;9.80;99.90
18577;DHT22;9418;52.694;13.294;2023-03-23T05:32:01;9.80;99.90
18577;DHT22;9418;52.694;13.294;2023-03-23T05:34:28;9.80;99.90
18577;DHT22;9418;52.694;13.294;2023-03-23T05:36:57;9.80;99.90
18577;DHT22;9418;52.694;13.294;2023-03-23T05:39:25;9.80;99.90
18577;DHT22;9418;52.694;13.294;2023-03-23T05:41:52;9.80;99.90
18577;DHT22;9418;52.694;13.294;2023-03-23T05:44:18;9.80;99.90
18577;DHT22;9418;52.694;13.294;2023-03-23T05:46:45;9.80;99.90
18577;DHT22;9418;52.694;13.294;2023-03-23T05:49:13;9.80;99.90
18577;DHT22;9418;52.694;13.294;2023-03-23T05:51:41;9.70;99.90
18577;DHT22;9418;52.694;13.294;2023-03-23T05:54:08;9.70;99.90
18577;DHT22;9418;52.694;13.294;2023-03-23T05:56:37;9.70;99.90
18577;DHT22;9418;52.694;13.294;2023-03-23T05:59:03;9.70;99.90
18577;DHT22;9418;52.694;13.294;2023-03-23T06:01:30;9.70;99.90
18577;DHT22;9418;52.694;13.294;2023-03-23T06:03:58;9.70;99.90
18577;DHT22;9418;52.694;13.294;2023-03-23T06:06:25;9.70;99.90
18577;DHT22;9418;52.694;13.294;2023-03-23T06:08:52;9.60;99.90
18577;DHT22;9418;52.694;13.294;2023-03-23T06:11:18;9.60;99.90
18577;DHT22;9418;52.694;13.294;2023-03-23T06:13:46;9.60;99.90
18577;DHT22;9418;52.694;13.294;2023-03-23T06:16:13;9.60;99.90
18577;DHT22;9418;52.694;13.294;2023-03-23T06:18:40;9.60;99.90
18577;DHT22;9418;52.694;13.294;2023-03-23T06:21:08;9.60;99.90
18577;DHT22;9418;52.694;13.294;2023-03-23T06:23:35;9.60;99.90
18577;DHT22;9418;52.694;13.294;2023-03-23T06:26:04;9.60;99.90
18577;DHT22;9418;52.694;13.294;2023-03-23T06:28:31;9.60;99.90
18577;DHT22;9418;52.694;13.294;2023-03-23T06:31:00;9.60;99.90
18577;DHT22;9418;52.694;13.294;2023-03-23T06:33:28;9.60;99.90
18577;DHT22;9418;52.694;13.294;2023-03-23T06:35:55;9.60;99.90
18577;DHT22;9418;52.694;13.294;2023-03-23T06:38:23;9.60;99.90
18577;DHT22;9418;52.694;13.294;2023-03-23T06:40:51;9.60;99.90
18577;DHT22;9418;52.694;13.294;2023-03-23T06:43:18;9.60;99.90
18577;DHT22;9418;52.694;13.294;2023-03-23T06:45:45;9.60;99.90
18577;DHT22;9418;52.694;13.294;2023-03-23T06:48:12;9.60;99.90
18577;DHT22;9418;52.694;13.294;2023-03-23T06:50:42;9.60;99.90
18577;DHT22;9418;52.694;13.294;2023-03-23T06:53:09;9.60;99.90
18577;DHT22;9418;52.694;13.294;2023-03-23T06:55:36;9.60;99.90
18577;DHT22;9418;52.694;13.294;2023-03-23T06:58:03;9.60;99.90
18577;DHT22;9418;52.694;13.294;2023-03-23T07:00:31;9.60;99.90
18577;DHT22;9418;52.694;13.294;2023-03-23T07:02:57;9.70;99.90
18577;DHT22;9418;52.694;13.294;2023-03-23T07:05:25;9.70;99.90
18577;DHT22;9418;52.694;13.294;2023-03-23T07:07:52;9.80;99.90
18577;DHT22;9418;52.694;13.294;2023-03-23T07:10:19;9.70;99.90
18577;DHT22;9418;52.694;13.294;2023-03-23T07:12:46;9.80;99.90
18577;DHT22;9418;52.694;13.294;2023-03-23T07:15:14;9.80;99.90
18577;DHT22;9418;52.694;13.294;2023-03-23T07:17:40;9.80;99.90
18577;DHT22;9418;52.694;13.294;2023-03-23T07:20:08;9.80;99.90
18577;DHT22;9418;52.694;13.294;2023-03-23T07:22:36;9.80;99.90
18577;DHT22;9418;52.694;13.294;2023-03-23T07:25:04;9.80;99.90
18577;DHT22;9418;52.694;13.294;2023-03-23T07:27:30;9.90;99.90
18577;DHT22;9418;52.694;13.294;2023-03-23T07:29:57;9.80;99.90
18577;DHT22;9418;52.694;13.294;2023-03-23T07:32:23;9.90;99.90
18577;DHT22;9418;52.694;13.294;2023-03-23T07:34:50;9.90;99.90
18577;DHT22;9418;52.694;13.294;2023-03-23T07:37:17;9.90;99.90
18577;DHT22;9418;52.694;13.294;2023-03-23T07:39:45;9.90;99.90
18577;DHT22;9418;52.694;13.294;2023-03-23T07:42:12;9.90;99.90
18577;DHT22;9418;52.694;13.294;2023-03-23T07:44:38;10.00;99.90
18577;DHT22;9418;52.694;13.294;2023-03-23T07:47:05;10.00;99.90
18577;DHT22;9418;52.694;13.294;2023-03-23T07:49:32;10.10;99.90
18577;DHT22;9418;52.694;13.294;2023-03-23T07:51:59;10.10;99.90
18577;DHT22;9418;52.694;13.294;2023-03-23T07:54:26;10.20;99.90
18577;DHT22;9418;52.694;13.294;2023-03-23T07:56:54;10.20;99.90
18577;DHT22;9418;52.694;13.294;2023-03-23T07:59:21;10.30;99.90
18577;DHT22;9418;52.694;13.294;2023-03-23T08:01:48;10.30;99.90
18577;DHT22;9418;52.694;13.294;2023-03-23T08:04:14;10.30;99.90
18577;DHT22;9418;52.694;13.294;2023-03-23T08:06:41;10.30;99.90
18577;DHT22;9418;52.694;13.294;2023-03-23T08:09:08;10.40;99.90
18577;DHT22;9418;52.694;13.294;2023-03-23T08:11:35;10.30;99.90
18577;DHT22;9418;52.694;13.294;2023-03-23T08:14:04;10.40;99.90
18577;DHT22;9418;52.694;13.294;2023-03-23T08:16:31;10.40;99.90
18577;DHT22;9418;52.694;13.294;2023-03-23T08:18:59;10.40;99.90
18577;DHT22;9418;52.694;13.294;2023-03-23T08:21:26;10.40;99.90
18577;DHT22;9418;52.694;13.294;2023-03-23T08:23:52;10.50;99.90
18577;DHT22;9418;52.694;13.294;2023-03-23T08:26:19;10.50;99.90
18577;DHT22;9418;52.694;13.294;2023-03-23T08:28:46;10.50;99.90
18577;DHT22;9418;52.694;13.294;2023-03-23T08:31:14;10.60;99.90
18577;DHT22;9418;52.694;13.294;2023-03-23T08:33:42;10.60;99.90
18577;DHT22;9418;52.694;13.294;2023-03-23T08:36:09;10.60;99.90
18577;DHT22;9418;52.694;13.294;2023-03-23T08:38:36;10.60;99.90
18577;DHT22;9418;52.694;13.294;2023-03-23T08:41:05;10.70;99.90
18577;DHT22;9418;52.694;13.294;2023-03-23T08:43:33;10.80;99.90
18577;DHT22;9418;52.694;13.294;2023-03-23T08:46:00;10.90;99.90
18577;DHT22;9418;52.694;13.294;2023-03-23T08:48:28;10.90;99.90
18577;DHT22;9418;52.694;13.294;2023-03-23T08:50:54;11.00;99.90
18577;DHT22;9418;52.694;13.294;2023-03-23T08:53:21;11.00;99.90
18577;DHT22;9418;52.694;13.294;2023-03-23T08:55:48;11.00;99.90
18577;DHT22;9418;52.694;13.294;2023-03-23T08:58:15;11.10;99.90
18577;DHT22;9418;52.694;13.294;2023-03-23T09:00:43;11.00;99.90
18577;DHT22;9418;52.694;13.294;2023-03-23T09:03:09;11.00;99.90
18577;DHT22;9418;52.694;13.294;2023-03-23T09:05:37;11.00;99.90
18577;DHT22;9418;52.694;13.294;2023-03-23T09:08:08;11.10;99.90
18577;DHT22;9418;52.694;13.294;2023-03-23T09:10:35;11.10;99.90
18577;DHT22;9418;52.694;13.294;2023-03-23T09:13:02;11.20;99.90
18577;DHT22;9418;52.694;13.294;2023-03-23T09:15:28;11.20;99.90
18577;DHT22;9418;52.694;13.294;2023-03-23T09:17:55;11.30;99.90
18577;DHT22;9418;52.694;13.294;2023-03-23T09:20:24;11.50;99.90
18577;DHT22;9418;52.694;13.294;2023-03-23T09:22:54;11.60;37.70
18577;DHT22;9418;52.694;13.294;2023-03-23T09:25:22;12.00;34.00
18577;DHT22;9418;52.694;13.294;2023-03-23T09:27:52;12.40;77.30
18577;DHT22;9418;52.694;13.294;2023-03-23T09:30:22;12.70;99.90
18577;DHT22;9418;52.694;13.294;2023-03-23T09:32:49;12.90;99.90
18577;DHT22;9418;52.694;13.294;2023-03-23T09:35:16;13.20;99.90
18577;DHT22;9418;52.694;13.294;2023-03-23T09:37:44;13.50;99.90
18577;DHT22;9418;52.694;13.294;2023-03-23T09:40:15;13.90;99.90
18577;DHT22;9418;52.694;13.294;2023-03-23T09:43:06;13.80;99.90
18577;DHT22;9418;52.694;13.294;2023-03-23T09:45:40;13.80;99.90
18577;DHT22;9418;52.694;13.294;2023-03-23T09:48:27;14.10;99.90
18577;DHT22;9418;52.694;13.294;2023-03-23T09:51:03;14.70;99.90
18577;DHT22;9418;52.694;13.294;2023-03-23T09:53:34;14.50;99.90
18577;DHT22;9418;52.694;13.294;2023-03-23T09:56:10;14.60;99.90
18577;DHT22;9418;52.694;13.294;2023-03-23T09:58:42;14.70;99.90
18577;DHT22;9418;52.694;13.294;2023-03-23T10:01:15;14.50;99.90
18577;DHT22;9418;52.694;13.294;2023-03-23T10:03:43;14.30;99.90
18577;DHT22;9418;52.694;13.294;2023-03-23T10:06:12;14.00;99.90
18577;DHT22;9418;52.694;13.294;2023-03-23T10:08:44;13.80;99.90
18577;DHT22;9418;52.694;13.294;2023-03-23T10:11:17;13.70;99.90
18577;DHT22;9418;52.694;13.294;2023-03-23T10:14:00;13.60;99.90
18577;DHT22;9418;52.694;13.294;2023-03-23T10:16:36;13.60;99.90
18577;DHT22;9418;52.694;13.294;2023-03-23T10:19:11;13.50;99.90
18577;DHT22;9418;52.694;13.294;2023-03-23T10:21:46;13.50;99.90
18577;DHT22;9418;52.694;13.294;2023-03-23T10:24:15;13.60;99.90
18577;DHT22;9418;52.694;13.294;2023-03-23T10:26:55;13.70;99.90
18577;DHT22;9418;52.694;13.294;2023-03-23T10:29:28;13.80;99.90
18577;DHT22;9418;52.694;13.294;2023-03-23T10:31:59;13.90;24.20
18577;DHT22;9418;52.694;13.294;2023-03-23T10:34:30;14.10;99.70
18577;DHT22;9418;52.694;13.294;2023-03-23T10:37:02;14.30;34.00
18577;DHT22;9418;52.694;13.294;2023-03-23T10:39:37;14.40;43.30
18577;DHT22;9418;52.694;13.294;2023-03-23T10:42:08;14.50;45.50
18577;DHT22;9418;52.694;13.294;2023-03-23T10:44:35;14.30;77.00
18577;DHT22;9418;52.694;13.294;2023-03-23T10:47:03;14.40;89.30
18577;DHT22;9418;52.694;13.294;2023-03-23T10:49:36;14.70;99.90
18577;DHT22;9418;52.694;13.294;2023-03-23T10:52:11;15.00;99.90
18577;DHT22;9418;52.694;13.294;2023-03-23T10:54:47;14.90;99.90
18577;DHT22;9418;52.694;13.294;2023-03-23T10:57:23;15.00;99.90
18577;DHT22;9418;52.694;13.294;2023-03-23T10:59:50;14.90;99.90
18577;DHT22;9418;52.694;13.294;2023-03-23T11:02:18;14.70;99.90
18577;DHT22;9418;52.694;13.294;2023-03-23T11:04:56;14.30;99.90
18577;DHT22;9418;52.694;13.294;2023-03-23T11:07:26;14.40;99.90
18577;DHT22;9418;52.694;13.294;2023-03-23T11:09:54;14.20;99.90
18577;DHT22;9418;52.694;13.294;2023-03-23T11:12:23;14.30;99.90
18577;DHT22;9418;52.694;13.294;2023-03-23T11:14:49;14.40;99.90
18577;DHT22;9418;52.694;13.294;2023-03-23T11:17:22;14.30;99.90
18577;DHT22;9418;52.694;13.294;2023-03-23T11:19:49;14.20;99.90
18577;DHT22;9418;52.694;13.294;2023-03-23T11:22:22;14.30;99.90
18577;DHT22;9418;52.694;13.294;2023-03-23T11:24:53;14.20;99.90
18577;DHT22;9418;52.694;13.294;2023-03-23T11:27:23;14.20;99.90
18577;DHT22;9418;52.694;13.294;2023-03-23T11:29:52;14.20;99.90
18577;DHT22;9418;52.694;13.294;2023-03-23T11:32:23;14.30;99.90
18577;DHT22;9418;52.694;13.294;2023-03-23T11:34:54;14.30;99.90
18577;DHT22;9418;52.694;13.294;2023-03-23T11:37:28;14.40;99.90
18577;DHT22;9418;52.694;13.294;2023-03-23T11:39:58;14.50;99.90
18577;DHT22;9418;52.694;13.294;2023-03-23T11:42:35;14.70;99.90
18577;DHT22;9418;52.694;13.294;2023-03-23T11:45:19;14.70;99.90
18577;DHT22;9418;52.694;13.294;2023-03-23T11:47:55;14.70;99.90
18577;DHT22;9418;52.694;13.294;2023-03-23T11:50:25;14.40;99.90
18577;DHT22;9418;52.694;13.294;2023-03-23T11:52:57;14.50;99.90
18577;DHT22;9418;52.694;13.294;2023-03-23T11:55:28;14.50;99.90
18577;DHT22;9418;52.694;13.294;2023-03-23T11:58:03;14.50;99.90
18577;DHT22;9418;52.694;13.294;2023-03-23T12:00:32;14.60;1.40
18577;DHT22;9418;52.694;13.294;2023-03-23T12:03:29;14.50;99.90
18577;DHT22;9418;52.694;13.294;2023-03-23T12:06:02;14.60;99.90
18577;DHT22;9418;52.694;13.294;2023-03-23T12:08:44;14.50;99.90
18577;DHT22;9418;52.694;13.294;2023-03-23T12:11:22;14.50;99.90
18577;DHT22;9418;52.694;13.294;2023-03-23T12:14:06;14.50;99.90
18577;DHT22;9418;52.694;13.294;2023-03-23T12:16:45;14.50;99.90
18577;DHT22;9418;52.694;13.294;2023-03-23T12:19:19;14.50;99.90
18577;DHT22;9418;52.694;13.294;2023-03-23T12:21:54;14.50;99.90
18577;DHT22;9418;52.694;13.294;2023-03-23T12:24:44;14.50;99.90
18577;DHT22;9418;52.694;13.294;2023-03-23T12:27:17;14.60;99.90
18577;DHT22;9418;52.694;13.294;2023-03-23T12:32:57;14.50;99.90
18577;DHT22;9418;52.694;13.294;2023-03-23T12:35:34;14.50;99.90
18577;DHT22;9418;52.694;13.294;2023-03-23T12:38:16;14.50;99.90
18577;DHT22;9418;52.694;13.294;2023-03-23T12:40:53;14.50;99.90
18577;DHT22;9418;52.694;13.294;2023-03-23T12:43:27;14.50;99.90
18577;DHT22;9418;52.694;13.294;2023-03-23T12:46:27;14.50;99.90
18577;DHT22;9418;52.694;13.294;2023-03-23T12:49:04;14.50;99.90
18577;DHT22;9418;52.694;13.294;2023-03-23T12:51:34;14.60;99.90
18577;DHT22;9418;52.694;13.294;2023-03-23T12:54:08;14.70;99.90
18577;DHT22;9418;52.694;13.294;2023-03-23T12:56:41;14.70;99.90
18577;DHT22;9418;52.694;13.294;2023-03-23T12:59:15;14.90;99.90
18577;DHT22;9418;52.694;13.294;2023-03-23T13:01:48;15.00;98.10
18577;DHT22;9418;52.694;13.294;2023-03-23T13:04:20;15.80;41.80
18577;DHT22;9418;52.694;13.294;2023-03-23T13:06:48;16.00;68.20
18577;DHT22;9418;52.694;13.294;2023-03-23T13:09:19;16.10;72.60
18577;DHT22;9418;52.694;13.294;2023-03-23T13:11:47;16.10;79.30
18577;DHT22;9418;52.694;13.294;2023-03-23T13:14:37;16.40;89.30
18577;DHT22;9418;52.694;13.294;2023-03-23T13:17:15;16.20;99.90
18577;DHT22;9418;52.694;13.294;2023-03-23T13:20:02;16.00;91.90
18577;DHT22;9418;52.694;13.294;2023-03-23T13:22:41;15.80;92.20
18577;DHT22;9418;52.694;13.294;2023-03-23T13:25:15;15.70;86.90
18577;DHT22;9418;52.694;13.294;2023-03-23T13:27:44;15.70;94.10
18577;DHT22;9418;52.694;13.294;2023-03-23T13:30:22;15.90;94.90
18577;DHT22;9418;52.694;13.294;2023-03-23T13:32:51;15.80;96.10
18577;DHT22;9418;52.694;13.294;2023-03-23T13:35:19;15.80;95.50
18577;DHT22;9418;52.694;13.294;2023-03-23T13:37:49;15.80;96.00
18577;DHT22;9418;52.694;13.294;2023-03-23T13:40:24;15.80;99.90
18577;DHT22;9418;52.694;13.294;2023-03-23T13:42:53;15.70;99.90
18577;DHT22;9418;52.694;13.294;2023-03-23T13:45:22;15.60;99.90
18577;DHT22;9418;52.694;13.294;2023-03-23T13:48:03;15.60;99.90
18577;DHT22;9418;52.694;13.294;2023-03-23T13:50:30;15.70;99.90
18577;DHT22;9418;52.694;13.294;2023-03-23T13:53:00;15.70;99.90
18577;DHT22;9418;52.694;13.294;2023-03-23T13:55:39;15.60;99.90
18577;DHT22;9418;52.694;13.294;2023-03-23T13:58:20;15.70;99.90
18577;DHT22;9418;52.694;13.294;2023-03-23T14:00:49;16.10;99.90
18577;DHT22;9418;52.694;13.294;2023-03-23T14:03:24;16.50;99.90
18577;DHT22;9418;52.694;13.294;2023-03-23T14:06:01;16.80;99.90
18577;DHT22;9418;52.694;13.294;2023-03-23T14:08:39;17.50;99.90
18577;DHT22;9418;52.694;13.294;2023-03-23T14:11:15;18.30;99.90
18577;DHT22;9418;52.694;13.294;2023-03-23T14:13:46;18.90;99.90
18577;DHT22;9418;52.694;13.294;2023-03-23T14:16:18;19.20;99.90
18577;DHT22;9418;52.694;13.294;2023-03-23T14:18:52;19.60;99.90
18577;DHT22;9418;52.694;13.294;2023-03-23T14:21:30;18.80;99.90
18577;DHT22;9418;52.694;13.294;2023-03-23T14:24:00;19.50;99.90
18577;DHT22;9418;52.694;13.294;2023-03-23T14:26:28;19.20;99.90
18577;DHT22;9418;52.694;13.294;2023-03-23T14:28:55;19.30;99.90
18577;DHT22;9418;52.694;13.294;2023-03-23T14:31:23;19.00;99.90
18577;DHT22;9418;52.694;13.294;2023-03-23T14:33:54;18.40;99.90
18577;DHT22;9418;52.694;13.294;2023-03-23T14:36:22;18.60;99.90
18577;DHT22;9418;52.694;13.294;2023-03-23T14:38:57;18.70;99.90
18577;DHT22;9418;52.694;13.294;2023-03-23T14:41:29;18.60;99.90
18577;DHT22;9418;52.694;13.294;2023-03-23T14:43:56;18.40;99.90
18577;DHT22;9418;52.694;13.294;2023-03-23T14:46:24;18.30;99.90
18577;DHT22;9418;52.694;13.294;2023-03-23T14:48:52;18.40;99.90
18577;DHT22;9418;52.694;13.294;2023-03-23T14:51:20;18.70;99.90
18577;DHT22;9418;52.694;13.294;2023-03-23T14:53:47;18.90;99.90
18577;DHT22;9418;52.694;13.294;2023-03-23T14:56:18;19.60;99.90
18577;DHT22;9418;52.694;13.294;2023-03-23T14:58:48;19.30;99.90
18577;DHT22;9418;52.694;13.294;2023-03-23T15:01:17;18.20;99.90
18577;DHT22;9418;52.694;13.294;2023-03-23T15:03:49;19.00;99.90
18577;DHT22;9418;52.694;13.294;2023-03-23T15:06:20;19.40;99.90
18577;DHT22;9418;52.694;13.294;2023-03-23T15:08:49;19.70;99.90
18577;DHT22;9418;52.694;13.294;2023-03-23T15:11:23;19.70;99.90
18577;DHT22;9418;52.694;13.294;2023-03-23T15:13:54;19.00;99.90
18577;DHT22;9418;52.694;13.294;2023-03-23T15:16:24;18.60;99.90
18577;DHT22;9418;52.694;13.294;2023-03-23T15:18:53;18.20;99.90
18577;DHT22;9418;52.694;13.294;2023-03-23T15:21:24;18.40;99.90
18577;DHT22;9418;52.694;13.294;2023-03-23T15:23:52;18.30;99.90
18577;DHT22;9418;52.694;13.294;2023-03-23T15:26:29;17.80;99.90
18577;DHT22;9418;52.694;13.294;2023-03-23T15:29:02;18.10;99.90
18577;DHT22;9418;52.694;13.294;2023-03-23T15:31:30;18.30;99.90
18577;DHT22;9418;52.694;13.294;2023-03-23T15:33:59;18.00;99.90
18577;DHT22;9418;52.694;13.294;2023-03-23T15:36:32;17.70;99.90
18577;DHT22;9418;52.694;13.294;2023-03-23T15:38:59;17.00;99.90
18577;DHT22;9418;52.694;13.294;2023-03-23T15:41:27;17.00;99.90
18577;DHT22;9418;52.694;13.294;2023-03-23T15:43:56;16.70;99.90
18577;DHT22;9418;52.694;13.294;2023-03-23T15:46:25;16.50;99.90
18577;DHT22;9418;52.694;13.294;2023-03-23T15:48:53;16.30;99.90
18577;DHT22;9418;52.694;13.294;2023-03-23T15:51:22;16.20;99.90
18577;DHT22;9418;52.694;13.294;2023-03-23T15:53:52;16.00;99.90
18577;DHT22;9418;52.694;13.294;2023-03-23T15:56:20;15.70;99.90
18577;DHT22;9418;52.694;13.294;2023-03-23T15:58:48;15.40;99.90